Time;durP1;ratioP1;P1;durP2;ratioP2;P2;SDS_P1;SDS_P2;PMS_P1;PMS_P2;Temp;Humidity;BMP_temperature;BMP_pressure;BME280_temperature;BME280_humidity;BME280_pressure;Samples;Min_cycle;Max_cycle;Signal;HPM_P1;HPM_P2
2021/12/31 00:02:13;;;;;;;8.40;2.70;;;;;;;14.32;100.00;101697.38;5211758;28;20201;-72
2021/12/31 00:04:45;;;;;;;5.43;2.55;;;;;;;14.29;100.00;101684.47;5210973;28;21294;-72
2021/12/31 00:07:17;;;;;;;8.15;2.67;;;;;;;14.27;100.00;101699.56;5209606;28;20034;-72
2021/12/31 00:09:48;;;;;;;7.55;2.47;;;;;;;14.31;100.00;101702.75;5211083;28;20033;-72
2021/12/31 00:12:22;;;;;;;8.05;2.28;;;;;;;14.31;100.00;101702.75;5211212;28;20076;-72
2021/12/31 00:14:54;;;;;;;5.45;2.10;;;;;;;14.27;100.00;101707.47;5211795;28;20030;-73
2021/12/31 00:17:25;;;;;;;7.63;2.60;;;;;;;14.18;100.00;101695.09;5212454;28;20029;-74
2021/12/31 00:20:04;;;;;;;5.57;1.88;;;;;;;14.26;100.00;101705.81;5211077;28;20330;-74
2021/12/31 00:22:56;;;;;;;8.07;2.67;;;;;;;14.28;100.00;101703.03;5211808;28;20565;-74
2021/12/31 00:25:27;;;;;;;5.40;2.25;;;;;;;14.27;100.00;101712.75;5210687;28;20038;-74
2021/12/31 00:27:59;;;;;;;5.68;1.90;;;;;;;14.25;100.00;101704.16;5211928;28;20022;-74
2021/12/31 00:30:31;;;;;;;6.63;2.25;;;;;;;14.23;100.00;101700.78;5211879;28;20105;-74
2021/12/31 00:33:04;;;;;;;5.80;2.03;;;;;;;14.26;100.00;101715.53;5211976;28;20049;-74
2021/12/31 00:35:37;;;;;;;6.30;2.30;;;;;;;14.30;100.00;101723.03;5212298;28;20025;-74
2021/12/31 00:38:08;;;;;;;9.55;2.20;;;;;;;14.24;100.00;101710.38;5210944;28;20065;-74
2021/12/31 00:40:41;;;;;;;7.13;2.38;;;;;;;14.25;100.00;101719.97;5210994;28;20125;-74
2021/12/31 00:43:12;;;;;;;9.82;2.45;;;;;;;14.29;100.00;101715.25;5212678;28;20018;-74
2021/12/31 00:45:44;;;;;;;6.18;2.13;;;;;;;14.23;100.00;101711.34;5211997;28;20084;-74
2021/12/31 00:48:15;;;;;;;4.22;2.00;;;;;;;14.26;100.00;101705.81;5196233;28;20028;-72
2021/12/31 00:50:46;;;;;;;6.45;2.08;;;;;;;14.27;100.00;101704.00;5210941;28;20056;-73
2021/12/31 00:53:18;;;;;;;6.65;2.28;;;;;;;14.30;100.00;101709.84;5210997;28;20057;-73
2021/12/31 00:55:49;;;;;;;6.15;2.33;;;;;;;14.28;100.00;101703.88;5211533;28;20029;-73
2021/12/31 00:58:20;;;;;;;6.55;2.00;;;;;;;14.27;100.00;101707.47;5209348;28;20125;-73
2021/12/31 01:00:52;;;;;;;5.70;1.92;;;;;;;14.31;100.00;101711.50;5211162;28;20060;-73
2021/12/31 01:03:23;;;;;;;4.65;1.98;;;;;;;14.33;100.00;101721.94;5211355;28;20036;-73
2021/12/31 01:05:54;;;;;;;6.47;2.00;;;;;;;14.29;100.00;101715.25;5211476;28;20052;-73
2021/12/31 01:08:26;;;;;;;5.85;2.10;;;;;;;14.31;100.00;101710.66;5210189;28;20271;-73
2021/12/31 01:10:57;;;;;;;9.95;2.22;;;;;;;14.30;100.00;101717.75;5211904;28;20044;-73
2021/12/31 01:13:36;;;;;;;7.78;2.17;;;;;;;14.29;100.00;101713.44;5211101;28;20036;-73
2021/12/31 01:16:08;;;;;;;6.45;2.03;;;;;;;14.28;100.00;101706.53;5211915;28;20029;-73
2021/12/31 01:21:20;;;;;;;7.30;2.30;;;;;;;14.28;100.00;101708.28;5210909;28;20485;-73
2021/12/31 01:23:52;;;;;;;5.07;1.98;;;;;;;14.29;100.00;101705.53;5211141;28;20537;-73
2021/12/31 01:26:23;;;;;;;6.78;2.05;;;;;;;14.29;100.00;101689.72;5211501;28;20038;-73
2021/12/31 01:28:55;;;;;;;6.78;2.30;;;;;;;14.31;100.00;101706.22;5209844;28;20030;-73
2021/12/31 01:31:26;;;;;;;4.70;1.83;;;;;;;14.24;100.00;101686.63;5210204;28;20120;-73
2021/12/31 01:33:57;;;;;;;5.28;1.92;;;;;;;14.31;100.00;101700.13;5211047;28;20022;-73
2021/12/31 01:36:29;;;;;;;3.42;1.80;;;;;;;14.30;100.00;101709.00;5211208;28;20105;-73
2021/12/31 01:39:00;;;;;;;4.10;2.00;;;;;;;14.33;100.00;101704.31;5211281;28;20025;-73
2021/12/31 01:41:31;;;;;;;8.05;2.10;;;;;;;14.31;100.00;101708.88;5210494;28;20546;-73
2021/12/31 01:44:07;;;;;;;5.32;2.03;;;;;;;14.24;100.00;101713.00;5210382;28;20030;-72
2021/12/31 01:47:04;;;;;;;4.22;1.80;;;;;;;14.35;100.00;101706.81;5210064;28;20542;-73
2021/12/31 01:49:39;;;;;;;5.68;2.33;;;;;;;14.27;100.00;101711.91;5211062;28;20033;-73
2021/12/31 01:52:11;;;;;;;7.47;1.98;;;;;;;14.29;100.00;101710.81;5210731;28;20025;-73
2021/12/31 01:54:42;;;;;;;5.20;1.58;;;;;;;14.30;100.00;101717.75;5211122;28;20346;-73
2021/12/31 01:57:13;;;;;;;6.00;2.00;;;;;;;14.35;100.00;101722.63;5209472;28;20033;-73
2021/12/31 01:59:45;;;;;;;6.43;2.42;;;;;;;14.32;100.00;101712.38;5210462;28;20076;-74
2021/12/31 02:02:17;;;;;;;6.88;2.22;;;;;;;14.31;100.00;101724.69;5210911;28;20474;-74
2021/12/31 02:04:49;;;;;;;5.82;2.15;;;;;;;14.29;100.00;101718.72;5209971;28;20461;-74
2021/12/31 02:07:20;;;;;;;7.03;2.00;;;;;;;14.30;100.00;101723.03;5210236;28;20038;-74
2021/12/31 02:09:54;;;;;;;6.55;1.70;;;;;;;14.32;100.00;101720.28;5210080;28;20107;-74
2021/12/31 02:12:25;;;;;;;4.53;1.98;;;;;;;14.33;100.00;101725.41;5210319;28;20034;-74
2021/12/31 02:14:57;;;;;;;5.10;1.77;;;;;;;14.33;100.00;101728.03;5208934;28;21610;-74
2021/12/31 02:17:28;;;;;;;4.38;1.77;;;;;;;14.33;100.00;101714.84;5209564;28;20035;-74
2021/12/31 02:20:06;;;;;;;6.03;1.85;;;;;;;14.43;100.00;101727.22;5211180;28;20018;-74
2021/12/31 02:22:44;;;;;;;6.38;2.00;;;;;;;14.34;100.00;101724.44;5207823;28;20390;-74
2021/12/31 02:25:15;;;;;;;6.63;2.25;;;;;;;14.26;100.00;101726.91;5211233;28;20116;-74
2021/12/31 02:27:48;;;;;;;3.92;2.05;;;;;;;14.31;100.00;101716.78;5210075;28;20075;-74
2021/12/31 02:30:19;;;;;;;6.22;1.80;;;;;;;14.31;100.00;101718.59;5210661;28;20025;-74
2021/12/31 02:32:50;;;;;;;7.13;2.10;;;;;;;14.35;100.00;101723.44;5208039;28;20036;-74
2021/12/31 02:35:22;;;;;;;6.22;2.28;;;;;;;14.32;100.00;101712.38;5209981;28;20034;-74
2021/12/31 02:37:53;;;;;;;5.22;1.80;;;;;;;14.32;100.00;101710.56;5210560;28;20486;-74
2021/12/31 02:40:27;;;;;;;6.65;1.90;;;;;;;14.33;100.00;101717.50;5210410;28;20069;-74
2021/12/31 02:42:59;;;;;;;7.35;2.15;;;;;;;14.32;100.00;101702.66;5208989;28;20040;-74
2021/12/31 02:45:36;;;;;;;3.17;1.50;;;;;;;14.33;100.00;101714.84;5210437;28;20490;-74
2021/12/31 02:48:08;;;;;;;5.35;1.90;;;;;;;14.29;100.00;101705.53;5210759;28;20022;-74
2021/12/31 02:50:42;;;;;;;5.88;2.30;;;;;;;14.31;100.00;101703.59;5213205;28;20088;-74
2021/12/31 02:53:15;;;;;;;6.70;2.03;;;;;;;14.28;100.00;101703.88;5214296;28;20345;-74
2021/12/31 02:56:04;;;;;;;5.38;2.33;;;;;;;14.37;100.00;101702.25;5214397;28;20053;-73
2021/12/31 02:58:36;;;;;;;5.75;2.03;;;;;;;14.27;100.00;101698.72;5212453;28;20029;-73
2021/12/31 03:01:09;;;;;;;5.53;2.00;;;;;;;14.28;100.00;101710.94;5212042;28;20030;-73
2021/12/31 03:03:41;;;;;;;7.40;2.35;;;;;;;14.27;100.00;101699.56;5213705;28;20422;-73
2021/12/31 03:06:13;;;;;;;4.75;1.98;;;;;;;14.22;100.00;101709.69;5212170;28;20030;-73
2021/12/31 03:08:48;;;;;;;6.28;2.17;;;;;;;14.26;100.00;101711.06;5214069;28;20037;-73
2021/12/31 03:11:20;;;;;;;6.13;2.08;;;;;;;14.22;100.00;101703.56;5212258;28;20068;-73
2021/12/31 03:13:54;;;;;;;6.97;2.00;;;;;;;14.24;100.00;101707.72;5213550;28;20111;-73
2021/12/31 03:16:25;;;;;;;5.65;2.10;;;;;;;14.23;100.00;101716.59;5213823;28;20030;-73
2021/12/31 03:18:58;;;;;;;5.75;2.00;;;;;;;14.18;100.00;101703.00;5213188;28;20033;-73
2021/12/31 03:21:30;;;;;;;8.70;2.20;;;;;;;14.22;100.00;101693.03;5213421;28;20037;-72
2021/12/31 03:24:01;;;;;;;5.78;1.95;;;;;;;14.20;100.00;101702.84;5213616;28;20014;-72
2021/12/31 03:26:34;;;;;;;4.63;1.65;;;;;;;14.19;100.00;101702.03;5213444;28;20053;-72
2021/12/31 03:29:05;;;;;;;5.25;1.90;;;;;;;14.19;100.00;101693.28;5213125;28;20313;-72
2021/12/31 03:31:37;;;;;;;5.45;2.45;;;;;;;14.14;100.00;101693.69;5213434;28;20022;-73
2021/12/31 03:34:10;;;;;;;6.30;2.50;;;;;;;14.10;100.00;101687.84;5213788;28;20030;-72
2021/12/31 03:36:42;;;;;;;8.05;2.58;;;;;;;14.04;100.00;101684.91;5213651;28;20033;-72
2021/12/31 03:39:14;;;;;;;5.47;2.08;;;;;;;14.09;100.00;101678.28;5212746;28;20033;-73
2021/12/31 03:41:45;;;;;;;7.53;2.20;;;;;;;14.13;100.00;101689.41;5213680;28;20534;-72
2021/12/31 03:44:16;;;;;;;10.13;2.55;;;;;;;14.08;100.00;101675.78;5212932;28;20018;-72
2021/12/31 03:46:48;;;;;;;6.13;2.13;;;;;;;14.02;100.00;101671.06;5212161;28;20856;-72
2021/12/31 03:49:19;;;;;;;7.22;2.60;;;;;;;14.02;100.00;101668.41;5213455;28;20036;-72
2021/12/31 03:51:50;;;;;;;5.75;2.13;;;;;;;14.02;100.00;101665.78;5213684;28;20491;-72
2021/12/31 03:54:21;;;;;;;6.18;1.83;;;;;;;13.84;100.00;101642.69;5212277;28;20537;-72
2021/12/31 03:56:53;;;;;;;5.25;2.05;;;;;;;13.98;100.00;101661.72;5211536;28;20509;-73
2021/12/31 03:59:24;;;;;;;7.80;2.55;;;;;;;13.97;100.00;101667.97;5211855;28;20060;-72
2021/12/31 04:01:55;;;;;;;6.82;2.40;;;;;;;14.02;100.00;101674.50;5212805;28;20022;-72
2021/12/31 04:04:26;;;;;;;5.90;2.28;;;;;;;14.02;100.00;101681.59;5212093;28;20026;-73
2021/12/31 04:06:58;;;;;;;6.40;2.30;;;;;;;14.02;100.00;101673.69;5212946;28;20077;-73
2021/12/31 04:09:29;;;;;;;3.97;2.00;;;;;;;14.03;100.00;101676.19;5212406;28;20057;-72
2021/12/31 04:12:00;;;;;;;7.32;2.38;;;;;;;14.04;100.00;101674.38;5212105;28;20048;-72
2021/12/31 04:14:31;;;;;;;5.47;2.17;;;;;;;14.05;100.00;101684.78;5212610;28;20014;-72
2021/12/31 04:17:03;;;;;;;5.93;2.40;;;;;;;13.99;100.00;101679.22;5212894;28;20029;-72
2021/12/31 04:19:35;;;;;;;6.03;2.25;;;;;;;14.03;100.00;101683.25;5211328;28;20033;-72
2021/12/31 04:22:08;;;;;;;8.05;2.60;;;;;;;14.00;100.00;101688.78;5212790;28;20075;-73
2021/12/31 04:27:17;;;;;;;5.93;2.22;;;;;;;14.00;100.00;101683.50;5212441;28;20129;-73
2021/12/31 04:29:52;;;;;;;5.00;2.20;;;;;;;14.02;100.00;101671.06;5212211;28;20037;-73
2021/12/31 04:32:24;;;;;;;7.30;2.40;;;;;;;14.00;100.00;101686.97;5212782;28;20376;-72
2021/12/31 04:34:55;;;;;;;6.72;2.60;;;;;;;14.05;100.00;101681.31;5212432;28;20434;-72
2021/12/31 04:37:27;;;;;;;6.90;2.55;;;;;;;14.06;100.00;101670.66;5212353;28;20021;-72
2021/12/31 04:39:58;;;;;;;7.28;2.90;;;;;;;14.01;100.00;101664.91;5211127;28;20038;-73
2021/12/31 04:42:29;;;;;;;8.60;2.83;;;;;;;14.04;100.00;101661.19;5213033;28;20124;-74
2021/12/31 04:45:02;;;;;;;6.95;2.47;;;;;;;13.97;100.00;101658.25;5211954;28;20145;-74
2021/12/31 04:47:33;;;;;;;8.13;2.78;;;;;;;13.95;100.00;101652.28;5211266;28;20156;-74
2021/12/31 04:50:06;;;;;;;6.30;2.67;;;;;;;13.96;100.00;101645.22;5212928;28;20472;-74
2021/12/31 04:52:38;;;;;;;8.05;2.60;;;;;;;13.96;100.00;101642.59;5212091;28;20467;-74
2021/12/31 04:55:10;;;;;;;7.20;2.40;;;;;;;13.94;100.00;101641.88;5212076;28;20029;-74
2021/12/31 04:57:47;;;;;;;6.20;2.28;;;;;;;13.93;100.00;101650.75;5210725;28;20033;-74
2021/12/31 05:00:18;;;;;;;6.05;2.58;;;;;;;13.95;100.00;101656.72;5209964;28;20053;-74
2021/12/31 05:02:49;;;;;;;4.82;2.40;;;;;;;13.97;100.00;101663.50;5211370;28;20089;-74
2021/12/31 05:05:21;;;;;;;4.57;2.20;;;;;;;13.88;100.00;101651.16;5210596;28;20050;-74
2021/12/31 05:07:52;;;;;;;7.97;2.95;;;;;;;13.96;100.00;101663.66;5211104;28;20395;-74
2021/12/31 05:10:23;;;;;;;6.10;2.50;;;;;;;13.98;100.00;101659.06;5211128;28;20069;-74
2021/12/31 05:12:56;;;;;;;7.07;2.65;;;;;;;13.87;100.00;101652.94;5211711;28;20018;-74
2021/12/31 05:15:27;;;;;;;6.38;2.38;;;;;;;13.95;100.00;101656.72;5210701;28;20164;-74
2021/12/31 05:17:59;;;;;;;5.13;2.25;;;;;;;13.84;100.00;101660.28;5211529;28;20108;-74
2021/12/31 05:20:30;;;;;;;6.28;2.40;;;;;;;13.89;100.00;101655.44;5211633;28;20027;-74
2021/12/31 05:23:01;;;;;;;5.85;2.40;;;;;;;13.79;100.00;101638.78;5211103;28;20022;-74
2021/12/31 05:25:33;;;;;;;6.07;2.50;;;;;;;13.89;100.00;101655.44;5210771;28;20156;-74
2021/12/31 05:28:04;;;;;;;8.65;2.40;;;;;;;13.76;100.00;101642.50;5212051;28;20472;-74
2021/12/31 05:30:35;;;;;;;7.47;2.35;;;;;;;13.81;100.00;101652.63;5211592;28;20033;-74
2021/12/31 05:33:07;;;;;;;7.45;2.33;;;;;;;13.79;100.00;101636.97;5210965;28;20079;-74
2021/12/31 05:35:38;;;;;;;4.95;2.53;;;;;;;13.79;100.00;101628.25;5210393;28;20040;-74
2021/12/31 05:38:12;;;;;;;6.63;2.55;;;;;;;13.79;100.00;101631.72;5210793;28;20716;-74
2021/12/31 05:40:43;;;;;;;6.63;2.72;;;;;;;13.74;100.00;101622.53;5212003;28;20046;-74
2021/12/31 05:43:15;;;;;;;6.97;2.63;;;;;;;13.71;100.00;101631.50;5210369;28;20022;-74
2021/12/31 05:45:46;;;;;;;6.65;2.30;;;;;;;13.63;100.00;101608.47;5207657;28;20033;-74
2021/12/31 05:48:17;;;;;;;4.53;2.35;;;;;;;13.59;100.00;101614.13;5208885;28;20038;-74
2021/12/31 05:50:48;;;;;;;6.25;2.22;;;;;;;13.58;100.00;101609.84;5211359;28;20030;-74
2021/12/31 05:53:20;;;;;;;5.38;2.20;;;;;;;13.48;100.00;101604.50;5210150;28;20013;-74
2021/12/31 05:55:51;;;;;;;6.32;1.92;;;;;;;13.39;100.00;101606.13;5211618;28;20322;-74
2021/12/31 05:58:23;;;;;;;4.60;2.03;;;;;;;13.42;100.00;101601.59;5211548;28;20042;-74
2021/12/31 06:00:54;;;;;;;6.82;2.25;;;;;;;13.31;100.00;101613.84;5210904;28;20104;-74
2021/12/31 06:03:25;;;;;;;6.20;1.90;;;;;;;13.35;100.00;101623.16;5210020;28;20324;-74
2021/12/31 06:05:56;;;;;;;5.20;2.10;;;;;;;13.34;100.00;101621.50;5210736;28;20028;-74
2021/12/31 06:08:28;;;;;;;7.82;2.13;;;;;;;13.29;100.00;101617.56;5210848;28;20084;-74
2021/12/31 06:10:59;;;;;;;5.43;2.00;;;;;;;13.27;100.00;101614.25;5210000;28;20096;-74
2021/12/31 06:13:31;;;;;;;6.47;2.15;;;;;;;13.26;100.00;101615.19;5209180;28;20018;-74
2021/12/31 06:16:04;;;;;;;4.68;2.17;;;;;;;13.22;100.00;101613.75;5211425;28;20026;-74
2021/12/31 06:18:36;;;;;;;5.18;1.98;;;;;;;13.12;100.00;101616.31;5210655;28;20524;-72
2021/12/31 06:21:07;;;;;;;4.20;1.95;;;;;;;13.14;100.00;101625.75;5210474;28;20022;-72
2021/12/31 06:23:39;;;;;;;4.88;2.30;;;;;;;13.06;100.00;101624.72;5208777;28;20059;-72
2021/12/31 06:26:10;;;;;;;5.63;2.20;;;;;;;13.08;100.00;101634.16;5211023;28;20059;-72
2021/12/31 06:28:41;;;;;;;5.13;2.15;;;;;;;13.09;100.00;101637.63;5210327;28;20037;-72
2021/12/31 06:31:12;;;;;;;6.38;1.75;;;;;;;13.10;100.00;101642.75;5211107;28;20036;-72
2021/12/31 06:33:44;;;;;;;5.07;2.25;;;;;;;13.10;100.00;101628.75;5209487;28;20036;-72
2021/12/31 06:36:15;;;;;;;4.78;1.98;;;;;;;13.07;100.00;101624.59;5210584;28;20080;-72
2021/12/31 06:38:47;;;;;;;5.97;1.98;;;;;;;13.04;100.00;101630.09;5210293;28;20029;-72
2021/12/31 06:41:20;;;;;;;5.70;2.13;;;;;;;13.03;100.00;101638.09;5210569;28;20045;-72
2021/12/31 06:43:51;;;;;;;6.60;2.70;;;;;;;12.92;100.00;101631.13;5209852;28;20052;-72
2021/12/31 06:46:22;;;;;;;3.95;1.80;;;;;;;12.99;100.00;101653.31;5210533;28;20042;-72
2021/12/31 06:48:54;;;;;;;5.43;1.92;;;;;;;12.95;100.00;101653.69;5210331;28;20024;-72
2021/12/31 06:51:25;;;;;;;3.70;2.10;;;;;;;12.94;100.00;101663.38;5209138;28;20458;-72
2021/12/31 06:53:56;;;;;;;6.07;2.20;;;;;;;12.90;100.00;101660.16;5210847;28;20024;-72
2021/12/31 06:56:28;;;;;;;5.95;2.30;;;;;;;12.82;100.00;101635.47;5208048;28;20034;-72
2021/12/31 06:58:59;;;;;;;7.82;2.58;;;;;;;12.81;100.00;101633.81;5210196;28;20013;-72
2021/12/31 07:01:30;;;;;;;6.45;2.55;;;;;;;12.83;100.00;101637.94;5210639;28;20021;-72
2021/12/31 07:04:02;;;;;;;5.60;2.30;;;;;;;12.82;100.00;101641.56;5210468;28;20077;-72
2021/12/31 07:06:33;;;;;;;4.80;1.75;;;;;;;12.77;100.00;101648.16;5209384;28;20502;-72
2021/12/31 07:09:04;;;;;;;4.22;2.00;;;;;;;12.76;100.00;101668.34;5209741;28;20025;-72
2021/12/31 07:11:35;;;;;;;5.82;2.60;;;;;;;12.75;100.00;101679.81;5210786;28;20028;-72
2021/12/31 07:14:07;;;;;;;9.15;2.45;;;;;;;12.71;100.00;101660.00;5206765;28;20022;-72
2021/12/31 07:16:38;;;;;;;5.32;2.10;;;;;;;12.72;100.00;101664.28;5207909;28;20025;-72
2021/12/31 07:19:09;;;;;;;4.07;1.80;;;;;;;12.65;100.00;101652.59;5208759;28;20034;-72
2021/12/31 07:21:41;;;;;;;5.45;2.53;;;;;;;12.64;100.00;101657.00;5210171;28;20026;-72
2021/12/31 07:24:12;;;;;;;5.47;2.17;;;;;;;12.66;100.00;101665.63;5208792;28;20022;-71
2021/12/31 07:26:43;;;;;;;5.22;2.22;;;;;;;12.63;100.00;101667.66;5210429;28;20033;-72
2021/12/31 07:29:14;;;;;;;3.67;1.83;;;;;;;12.61;100.00;101680.09;5206271;28;20026;-72
2021/12/31 07:31:46;;;;;;;5.45;1.85;;;;;;;12.60;100.00;101678.44;5209046;28;20036;-72
2021/12/31 07:34:17;;;;;;;5.38;2.10;;;;;;;12.54;100.00;101669.25;5210521;28;20025;-72
2021/12/31 07:36:48;;;;;;;4.72;2.20;;;;;;;12.50;100.00;101667.81;5212668;28;20053;-72
2021/12/31 07:39:23;;;;;;;4.93;2.17;;;;;;;12.46;100.00;101673.44;5210604;28;20335;-72
2021/12/31 07:41:54;;;;;;;6.20;2.00;;;;;;;12.48;100.00;101674.16;5211086;28;20037;-72
2021/12/31 07:44:26;;;;;;;5.53;2.42;;;;;;;12.44;100.00;101667.47;5213290;28;20060;-72
2021/12/31 07:46:57;;;;;;;6.18;2.35;;;;;;;12.38;100.00;101659.09;5214094;28;20037;-72
2021/12/31 07:49:28;;;;;;;4.72;2.50;;;;;;;12.40;100.00;101675.59;5212047;28;20033;-72
2021/12/31 07:52:00;;;;;;;5.13;2.25;;;;;;;12.41;100.00;101679.88;5213359;28;20030;-72
2021/12/31 07:54:31;;;;;;;5.53;2.53;;;;;;;12.37;100.00;101688.13;5211355;28;20022;-73
2021/12/31 07:57:02;;;;;;;4.47;2.30;;;;;;;12.36;100.00;101687.31;5211914;28;20034;-72
2021/12/31 07:59:34;;;;;;;6.35;2.35;;;;;;;12.34;100.00;101691.00;5210089;28;20040;-72
2021/12/31 08:02:05;;;;;;;5.78;2.47;;;;;;;12.36;100.00;101689.94;5212393;28;20022;-72
2021/12/31 08:04:36;;;;;;;4.38;2.20;;;;;;;12.34;100.00;101704.97;5209041;28;20030;-72
2021/12/31 08:07:08;;;;;;;4.28;2.15;;;;;;;12.36;100.00;101696.97;5211129;28;20026;-72
2021/12/31 08:09:40;;;;;;;7.43;2.45;;;;;;;12.37;100.00;101702.09;5213113;28;20109;-72
2021/12/31 08:12:11;;;;;;;7.00;2.50;;;;;;;12.37;100.00;101696.84;5205598;28;20040;-72
2021/12/31 08:14:43;;;;;;;6.25;2.65;;;;;;;12.36;100.00;101700.44;5213010;28;20018;-72
2021/12/31 08:17:14;;;;;;;5.40;2.28;;;;;;;12.35;100.00;101688.28;5213030;28;20022;-71
2021/12/31 08:19:45;;;;;;;3.50;2.03;;;;;;;12.40;100.00;101696.63;5210437;28;20030;-72
2021/12/31 08:22:16;;;;;;;5.35;2.03;;;;;;;12.37;100.00;101685.50;5213051;28;20060;-71
2021/12/31 08:24:48;;;;;;;5.50;2.20;;;;;;;12.34;100.00;101675.22;5211249;28;20030;-72
2021/12/31 08:27:19;;;;;;;5.95;1.92;;;;;;;12.36;100.00;101668.91;5222408;23;20045;-73
2021/12/31 08:29:50;;;;;;;4.15;1.92;;;;;;;12.46;100.00;101669.00;5212539;28;20021;-73
2021/12/31 08:32:21;;;;;;;5.25;2.40;;;;;;;12.49;100.00;101663.50;5211496;28;20053;-73
2021/12/31 08:34:53;;;;;;;3.67;2.17;;;;;;;12.51;100.00;101673.91;5211996;28;20034;-73
2021/12/31 08:37:24;;;;;;;4.60;2.00;;;;;;;12.52;100.00;101679.03;5211266;28;20026;-73
2021/12/31 08:39:58;;;;;;;3.75;1.83;;;;;;;12.63;100.00;101684.28;5209895;28;20022;-73
2021/12/31 08:42:30;;;;;;;5.00;2.25;;;;;;;12.57;100.00;101683.91;5209439;28;20100;-73
2021/12/31 08:45:01;;;;;;;5.82;2.20;;;;;;;12.62;100.00;101681.78;5207354;28;20037;-73
2021/12/31 08:47:33;;;;;;;2.75;1.80;;;;;;;12.63;100.00;101672.94;5208609;28;20124;-73
2021/12/31 08:50:05;;;;;;;4.40;1.92;;;;;;;12.72;100.00;101674.81;5209928;28;20434;-73
2021/12/31 08:52:37;;;;;;;5.57;2.00;;;;;;;12.68;100.00;101662.88;5209906;28;20036;-73
2021/12/31 08:55:09;;;;;;;5.45;1.88;;;;;;;12.76;100.00;101662.25;5208576;28;20506;-73
2021/12/31 08:57:40;;;;;;;5.13;2.07;;;;;;;12.78;100.00;101650.66;5208287;28;20109;-73
2021/12/31 09:00:12;;;;;;;3.53;2.05;;;;;;;12.82;100.00;101640.72;5211242;28;20028;-73
2021/12/31 09:02:45;;;;;;;4.20;2.13;;;;;;;12.86;100.00;101645.59;5210877;28;20034;-73
2021/12/31 09:05:17;;;;;;;5.45;2.22;;;;;;;12.91;100.00;101651.31;5211033;28;20423;-73
2021/12/31 09:07:50;;;;;;;5.55;2.17;;;;;;;12.94;100.00;101652.03;5210552;28;20369;-73
2021/12/31 09:10:21;;;;;;;3.47;1.73;;;;;;;12.94;100.00;101634.44;5207275;28;20057;-73
2021/12/31 09:12:52;;;;;;;5.00;1.92;;;;;;;12.89;100.00;101655.88;5208103;28;20136;-73
2021/12/31 09:15:23;;;;;;;4.55;2.25;;;;;;;12.97;100.00;101664.94;5209181;28;20091;-73
2021/12/31 09:17:55;;;;;;;5.93;2.15;;;;;;;12.97;100.00;101668.41;5210926;28;20491;-73
2021/12/31 09:20:28;;;;;;;3.78;1.80;;;;;;;13.00;100.00;101662.88;5209837;28;20096;-73
2021/12/31 09:23:00;;;;;;;;;;;;;;;13.44;100.00;101662.81;5210426;28;20407;-73
2021/12/31 09:25:32;;;;;;;5.13;2.10;;;;;;;12.99;100.00;101657.75;5208332;28;19933;-73
2021/12/31 09:28:03;;;;;;;3.13;1.80;;;;;;;12.99;100.00;101671.72;5210013;28;20402;-73
2021/12/31 09:30:34;;;;;;;4.32;2.40;;;;;;;13.03;100.00;101673.16;5209483;28;20509;-73
2021/12/31 09:33:06;;;;;;;2.88;1.70;;;;;;;13.07;100.00;101679.00;5205747;28;20026;-73
2021/12/31 09:35:39;;;;;;;5.18;1.70;;;;;;;13.04;100.00;101695.88;5205440;28;20434;-73
2021/12/31 09:38:11;;;;;;;4.53;2.03;;;;;;;13.07;100.00;101697.44;5209066;28;20030;-73
2021/12/31 09:40:42;;;;;;;4.07;1.85;;;;;;;13.10;100.00;101705.88;5209177;28;20076;-73
2021/12/31 09:43:14;;;;;;;6.25;2.10;;;;;;;13.10;100.00;101697.16;5207273;28;21096;-73
2021/12/31 09:45:47;;;;;;;6.00;1.77;;;;;;;13.12;100.00;101714.50;5207394;28;20654;-73
2021/12/31 09:48:23;;;;;;;3.17;2.05;;;;;;;13.18;100.00;101699.97;5204459;28;20031;-74
2021/12/31 09:50:56;;;;;;;5.00;2.10;;;;;;;13.12;100.00;101705.78;5204258;28;20038;-73
2021/12/31 09:53:27;;;;;;;4.75;1.65;;;;;;;13.20;100.00;101713.03;5208782;28;20080;-73
2021/12/31 09:55:59;;;;;;;4.63;1.70;;;;;;;13.19;100.00;101709.56;5197324;28;20276;-73
2021/12/31 09:58:30;;;;;;;3.17;1.80;;;;;;;13.24;100.00;101723.22;5205616;28;20034;-73
2021/12/31 10:01:03;;;;;;;4.47;1.95;;;;;;;13.23;100.00;101707.53;5207490;28;20022;-73
2021/12/31 10:03:37;;;;;;;6.35;1.83;;;;;;;13.26;100.00;101694.97;5205690;28;20030;-73
2021/12/31 10:06:11;;;;;;;4.80;2.00;;;;;;;13.26;100.00;101708.16;5206633;28;20021;-73
2021/12/31 10:08:45;;;;;;;4.85;2.30;;;;;;;13.26;100.00;101712.53;5207936;28;20116;-73
2021/12/31 10:11:26;;;;;;;4.13;1.50;;;;;;;13.36;100.00;101719.56;5206649;28;20042;-73
2021/12/31 10:14:00;;;;;;;4.38;1.90;;;;;;;13.26;100.00;101705.50;5208281;28;20037;-73
2021/12/31 10:16:40;;;;;;;4.30;2.13;;;;;;;13.38;100.00;101686.06;5206278;28;20447;-73
2021/12/31 10:19:20;;;;;;;5.20;2.35;;;;;;;13.25;100.00;101672.25;5205912;28;20108;-73
2021/12/31 10:21:54;;;;;;;3.83;1.90;;;;;;;13.18;100.00;101686.00;5206664;28;20029;-73
2021/12/31 10:24:32;;;;;;;5.32;2.13;;;;;;;13.30;100.00;101695.56;5206380;28;20427;-73
2021/12/31 10:27:11;;;;;;;4.15;2.00;;;;;;;13.30;100.00;101687.66;5206808;28;20053;-73
2021/12/31 10:30:00;;;;;;;5.03;1.95;;;;;;;13.34;100.00;101682.03;5206911;28;20121;-73
2021/12/31 10:32:40;;;;;;;5.88;2.70;;;;;;;13.30;100.00;101692.94;5207756;28;20368;-73
2021/12/31 10:35:13;;;;;;;4.30;2.17;;;;;;;13.30;100.00;101690.31;5207563;28;20558;-73
2021/12/31 10:37:47;;;;;;;3.13;2.08;;;;;;;13.29;100.00;101681.56;5208080;28;20030;-73
2021/12/31 10:40:25;;;;;;;5.32;2.40;;;;;;;13.41;100.00;101684.13;5206316;28;20033;-73
2021/12/31 10:43:12;;;;;;;5.60;1.90;;;;;;;13.47;100.00;101689.72;5211548;23;20030;-74
2021/12/31 10:45:56;;;;;;;5.15;2.00;;;;;;;13.39;100.00;101700.06;5198663;28;20573;-74
2021/12/31 10:48:50;;;;;;;3.58;2.20;;;;;;;13.59;100.00;101704.47;5204176;28;20034;-73
2021/12/31 10:51:34;;;;;;;5.65;1.90;;;;;;;13.55;100.00;101716.22;5208006;28;20038;-74
2021/12/31 10:55:02;;;;;;;5.30;2.00;;;;;;;13.65;100.00;101726.84;5188968;28;20036;-74
2021/12/31 10:57:34;;;;;;;5.00;2.03;;;;;;;13.61;100.00;101704.38;5183700;28;20129;-74
2021/12/31 11:00:09;;;;;;;4.10;2.33;;;;;;;13.53;100.00;101705.00;5198175;28;20052;-73
2021/12/31 11:02:42;;;;;;;3.90;2.10;;;;;;;13.51;100.00;101703.47;5191731;28;20080;-73
2021/12/31 11:05:16;;;;;;;5.75;2.40;;;;;;;13.54;100.00;101687.41;5195089;28;20113;-74
2021/12/31 11:07:48;;;;;;;5.00;2.08;;;;;;;13.48;100.00;101690.56;5196049;28;20033;-73
2021/12/31 11:10:25;;;;;;;3.83;2.10;;;;;;;13.51;100.00;101691.13;5195644;28;20030;-73
2021/12/31 11:12:57;;;;;;;3.63;2.17;;;;;;;13.46;100.00;101695.13;5198791;28;20037;-73
2021/12/31 11:15:28;;;;;;;3.67;2.20;;;;;;;13.44;100.00;101673.34;5198862;28;20055;-74
2021/12/31 11:18:00;;;;;;;4.88;2.20;;;;;;;13.44;100.00;101675.97;5199838;28;20029;-74
2021/12/31 11:20:32;;;;;;;6.93;2.70;;;;;;;13.41;100.00;101669.19;5195711;28;20049;-74
2021/12/31 11:23:03;;;;;;;3.25;2.10;;;;;;;13.53;100.00;101662.88;5198648;28;20744;-74
2021/12/31 11:25:35;;;;;;;4.90;2.45;;;;;;;13.54;100.00;101663.72;5194880;28;20113;-74
2021/12/31 11:28:23;;;;;;;4.43;1.95;;;;;;;13.77;100.00;101672.31;5199172;28;20032;-74
2021/12/31 11:30:56;;;;;;;4.35;2.40;;;;;;;13.58;100.00;101641.44;5198286;28;20026;-73
2021/12/31 11:33:28;;;;;;;6.07;2.53;;;;;;;13.65;100.00;101631.22;5195880;28;20034;-74
2021/12/31 11:36:04;;;;;;;4.95;2.33;;;;;;;13.62;100.00;101633.13;5196504;28;20084;-73
2021/12/31 11:38:45;;;;;;;5.20;2.22;;;;;;;13.77;100.00;101623.09;5192290;28;20487;-73
2021/12/31 11:41:23;;;;;;;3.88;2.20;;;;;;;13.86;100.00;101603.03;5199526;28;20052;-74
2021/12/31 11:44:06;;;;;;;5.03;2.03;;;;;;;14.00;100.00;101602.66;5195697;28;20054;-73
2021/12/31 11:46:42;;;;;;;;;;;;;;;14.40;100.00;101607.06;5195301;28;20046;-74
2021/12/31 11:49:26;;;;;;;5.43;2.40;;;;;;;14.12;100.00;101592.84;5200479;28;19917;-73